aviador You're here:

KPQL Decoded Metar

PASCAGOULA in MS, USA
Report Time2017-06-22 21:53:00
UTC Time2017-06-22 22:15:03
Flight Rules mvfr MVFR
Wind170° at 12 Gusting to 24 kt
W.Decomp.*RWY 17: 12.0 kt HW 0.2 kt LCW
W.Rank170° ranks 11
Current wind is above 170° avg. (6.7)
Visibility9999 m
Phenomena:N/A
Clouds:Broken 016 Hf
Overcast 023 Hf
Expected CloudBase > 1,600 ft AGL from Temp-Dew spread
Ceiling1,600 ft
Temp28°C (ISA +13)
Dew Point24°C (79% RH)
Heat Index31.9°C
QNH1011 hPa
Density Alt1,978 ft
Elevation20 ft
Report Wrong Elevation
Raw Report
METAR KPQL 222153Z AUTO 17012G24KT 7SM BKN016 OVC023 28/24 A2986 RMK
AO2 PK WND 16030/2126 SLP113 T02830244=

Extra information for KPQL:More info

Metar Taf Metar & Taf Last 4 Metars F.Rules Stats Wind Profile Meteogram Temp Stats Airport Information Weather charts Add Link Nearby VenuesMetar ALERT Operation Metar Decoded Social comments

AIRNAV info for KPQL